Time,TemperatureF,DewpointF,PressureIn,WindDirection,WindDirectionDegrees,WindSpeedMPH,WindSpeedGustMPH,Humidity,HourlyPrecipIn,Conditions,Clouds,dailyrainin,SoftwareType,DateUTC
2013-01-31 00:05:00,55.4,52.6,29.18,SE,126,10.1,22.8,90,0.00,,,0.00,VWS V14.01,2013-01-31 05:05:00,
2013-01-31 00:10:00,55.4,52.6,29.15,East,99,12.8,22.8,90,0.00,,,0.00,VWS V14.01,2013-01-31 05:10:00,
2013-01-31 00:15:00,55.2,52.7,29.15,East,89,9.6,15.0,91,0.00,,,0.00,VWS V14.01,2013-01-31 05:15:00,
2013-01-31 00:25:00,55.2,52.7,29.15,SE,132,8.1,15.0,91,0.00,,,0.00,VWS V14.01,2013-01-31 05:25:00,
2013-01-31 00:30:00,55.2,52.7,29.15,SE,137,10.1,22.4,91,0.00,,,0.00,VWS V14.01,2013-01-31 05:30:00,
2013-01-31 00:40:00,55.2,52.7,29.12,East,82,8.3,22.4,91,0.00,,,0.00,VWS V14.01,2013-01-31 05:40:00,
2013-01-31 00:45:00,55.0,52.6,29.12,ESE,103,6.3,17.4,91,0.00,,,0.00,VWS V14.01,2013-01-31 05:45:00,
2013-01-31 00:50:00,55.0,52.6,29.12,East,95,7.2,17.4,91,0.00,,,0.00,VWS V14.01,2013-01-31 05:50:00,
2013-01-31 01:00:00,54.9,52.4,29.09,ESE,116,5.8,21.0,91,0.00,,,0.00,VWS V14.01,2013-01-31 06:00:00,
2013-01-31 01:10:00,54.9,52.4,29.06,SE,136,8.3,21.0,91,0.00,,,0.00,VWS V14.01,2013-01-31 06:10:00,
2013-01-31 01:15:00,54.7,52.2,29.06,ESE,119,7.6,17.9,91,0.00,,,0.00,VWS V14.01,2013-01-31 06:15:00,
2013-01-31 01:30:00,54.7,52.2,29.09,SW,214,8.7,12.8,91,0.00,,,0.00,VWS V14.01,2013-01-31 06:30:00,
2013-01-31 01:40:00,54.5,52.0,29.06,South,187,4.0,13.2,91,0.00,,,0.00,VWS V14.01,2013-01-31 06:40:00,
2013-01-31 01:45:00,54.5,52.0,29.06,ENE,68,2.2,13.2,91,0.00,,,0.00,VWS V14.01,2013-01-31 06:45:00,
2013-01-31 01:50:00,54.5,52.0,29.06,SE,140,8.7,13.2,91,0.00,,,0.00,VWS V14.01,2013-01-31 06:50:00,
2013-01-31 02:00:00,54.5,52.0,29.06,SSE,152,4.9,21.5,91,0.00,,,0.00,VWS V14.01,2013-01-31 07:00:00,
2013-01-31 02:10:00,54.9,52.1,29.06,East,96,6.3,21.5,90,0.00,,,0.00,VWS V14.01,2013-01-31 07:10:00,
2013-01-31 02:15:00,54.9,52.1,29.06,SSW,206,8.7,12.8,90,0.00,,,0.00,VWS V14.01,2013-01-31 07:15:00,
2013-01-31 02:25:00,54.9,52.1,29.03,SE,139,10.1,16.8,90,0.00,,,0.00,VWS V14.01,2013-01-31 07:25:00,
2013-01-31 02:35:00,54.7,51.9,29.03,SSE,149,5.4,17.4,90,0.00,,,0.00,VWS V14.01,2013-01-31 07:35:00,
2013-01-31 02:45:00,54.5,51.7,29.03,SW,225,10.5,17.4,90,0.00,,,0.00,VWS V14.01,2013-01-31 07:45:00,
2013-01-31 02:51:00,54.3,51.5,29.03,SSW,193,10.5,17.4,90,0.00,,,0.00,VWS V14.01,2013-01-31 07:51:00,
2013-01-31 03:01:00,54.3,51.5,29.03,SSW,195,8.3,15.9,90,0.00,,,0.00,VWS V14.01,2013-01-31 08:01:00,
2013-01-31 03:10:00,54.3,51.5,29.06,SSW,198,15.4,22.4,90,0.00,,,0.00,VWS V14.01,2013-01-31 08:10:00,
2013-01-31 03:15:00,54.3,51.5,29.06,SSW,205,12.8,22.4,90,0.00,,,0.00,VWS V14.01,2013-01-31 08:15:00,
2013-01-31 03:25:00,54.3,51.5,29.06,SSW,206,11.4,17.9,90,0.00,,,0.00,VWS V14.01,2013-01-31 08:25:00,
2013-01-31 03:35:00,51.1,47.4,29.06,West,268,20.6,24.2,87,0.00,,,0.00,VWS V14.01,2013-01-31 08:35:00,
2013-01-31 03:45:00,45.5,41.7,29.06,NW,313,16.3,22.8,86,0.00,,,0.00,VWS V14.01,2013-01-31 08:45:00,
2013-01-31 03:55:00,42.3,38.8,29.09,West,273,15.0,29.8,87,0.00,,,0.00,VWS V14.01,2013-01-31 08:55:00,
2013-01-31 04:00:00,41.5,38.3,29.09,WSW,245,12.8,28.9,88,0.00,,,0.00,VWS V14.01,2013-01-31 09:00:00,
2013-01-31 04:10:00,40.6,38.0,29.09,SW,223,5.4,23.7,90,0.00,,,0.00,VWS V14.01,2013-01-31 09:10:00,
2013-01-31 04:20:00,39.7,37.1,29.09,WSW,254,11.0,23.7,90,0.00,,,0.00,VWS V14.01,2013-01-31 09:20:00,
2013-01-31 04:25:00,39.4,36.8,29.09,SW,228,8.7,23.7,90,0.00,,,0.00,VWS V14.01,2013-01-31 09:25:00,
2013-01-31 04:35:00,38.8,36.2,29.09,SW,235,8.7,17.4,90,0.00,,,0.00,VWS V14.01,2013-01-31 09:35:00,
2013-01-31 04:45:00,38.8,36.5,29.09,SW,234,5.4,17.0,91,0.00,,,0.00,VWS V14.01,2013-01-31 09:45:00,
2013-01-31 04:50:00,38.8,36.5,29.09,WSW,239,8.1,19.7,91,0.00,,,0.00,VWS V14.01,2013-01-31 09:50:00,
2013-01-31 04:55:00,38.7,36.3,29.12,SW,224,11.0,19.7,91,0.00,,,0.00,VWS V14.01,2013-01-31 09:55:00,
2013-01-31 05:00:00,38.7,36.3,29.12,WNW,293,12.3,18.8,91,0.00,,,0.00,VWS V14.01,2013-01-31 10:00:00,
2013-01-31 05:10:00,38.7,36.1,29.09,SW,223,6.3,18.8,90,0.00,,,0.00,VWS V14.01,2013-01-31 10:10:00,
2013-01-31 05:20:00,38.5,35.6,29.09,WSW,251,10.1,16.3,89,0.00,,,0.00,VWS V14.01,2013-01-31 10:20:00,
2013-01-31 05:30:00,38.3,35.4,29.09,SW,230,15.0,15.9,89,0.00,,,0.00,VWS V14.01,2013-01-31 10:30:00,
2013-01-31 05:35:00,38.1,35.3,29.09,SW,230,8.3,16.3,89,0.00,,,0.00,VWS V14.01,2013-01-31 10:35:00,
2013-01-31 05:45:00,37.9,35.1,29.12,SW,236,15.4,17.9,89,0.00,,,0.00,VWS V14.01,2013-01-31 10:45:00,
2013-01-31 05:55:00,37.8,35.2,29.12,SW,222,14.5,24.2,90,0.00,,,0.00,VWS V14.01,2013-01-31 10:55:00,
2013-01-31 06:00:00,37.6,35.0,29.12,WSW,245,12.3,24.2,90,0.00,,,0.00,VWS V14.01,2013-01-31 11:00:00,
2013-01-31 06:05:00,37.2,34.1,29.12,West,271,17.4,26.2,88,0.00,,,0.00,VWS V14.01,2013-01-31 11:05:00,
2013-01-31 06:15:00,37.2,32.9,29.12,WNW,285,13.2,26.2,84,0.00,,,0.00,VWS V14.01,2013-01-31 11:15:00,
2013-01-31 06:20:00,37.0,31.5,29.12,SW,236,8.7,18.8,80,0.00,,,0.00,VWS V14.01,2013-01-31 11:20:00,
2013-01-31 06:25:00,37.0,31.2,29.15,SW,227,14.1,20.1,79,0.00,,,0.00,VWS V14.01,2013-01-31 11:25:00,
2013-01-31 06:30:00,36.9,30.8,29.15,WNW,290,17.0,23.7,78,0.00,,,0.00,VWS V14.01,2013-01-31 11:30:00,
2013-01-31 06:40:00,36.3,28.6,29.18,West,260,19.2,23.7,73,0.00,,,0.00,VWS V14.01,2013-01-31 11:40:00,
2013-01-31 06:45:00,36.1,28.1,29.18,WSW,254,12.8,23.7,72,0.00,,,0.00,VWS V14.01,2013-01-31 11:45:00,
2013-01-31 06:55:00,35.8,27.1,29.18,WSW,245,15.9,26.2,70,0.00,,,0.00,VWS V14.01,2013-01-31 11:55:00,
2013-01-31 07:05:00,35.4,26.0,29.18,West,261,21.5,28.4,68,0.00,,,0.00,VWS V14.01,2013-01-31 12:05:00,
2013-01-31 07:10:00,35.2,25.5,29.18,West,276,17.0,28.4,67,0.00,,,0.00,VWS V14.01,2013-01-31 12:10:00,
2013-01-31 07:15:00,35.1,25.0,29.18,SW,220,18.8,24.2,66,0.00,,,0.00,VWS V14.01,2013-01-31 12:15:00,
2013-01-31 07:25:00,35.1,23.9,29.21,SW,221,13.2,28.0,63,0.00,,,0.00,VWS V14.01,2013-01-31 12:25:00,
2013-01-31 07:30:00,34.9,23.7,29.21,SW,226,25.7,28.0,63,0.00,,,0.00,VWS V14.01,2013-01-31 12:30:00,
2013-01-31 07:40:00,34.7,22.8,29.21,SW,233,8.1,30.6,61,0.00,,,0.00,VWS V14.01,2013-01-31 12:40:00,
2013-01-31 07:50:00,34.5,22.6,29.21,SW,229,18.8,22.4,61,0.00,,,0.00,VWS V14.01,2013-01-31 12:50:00,
2013-01-31 07:55:00,34.3,22.4,29.23,SW,236,10.1,21.9,61,0.00,,,0.00,VWS V14.01,2013-01-31 12:55:00,
2013-01-31 08:05:00,33.8,21.9,29.23,West,267,17.4,32.0,61,0.00,,,0.00,VWS V14.01,2013-01-31 13:05:00,
2013-01-31 08:15:00,33.1,21.2,29.26,West,262,15.4,32.0,61,0.00,,,0.00,VWS V14.01,2013-01-31 13:15:00,
2013-01-31 08:20:00,32.7,20.5,29.26,SW,225,26.6,28.4,60,0.00,,,0.00,VWS V14.01,2013-01-31 13:20:00,
2013-01-31 08:25:00,32.5,20.3,29.26,SW,222,18.3,26.6,60,0.00,,,0.00,VWS V14.01,2013-01-31 13:25:00,
2013-01-31 08:35:00,32.5,19.9,29.26,SW,222,25.1,32.9,59,0.00,,,0.00,VWS V14.01,2013-01-31 13:35:00,
2013-01-31 08:40:00,32.2,19.2,29.26,SW,228,25.7,30.6,58,0.00,,,0.00,VWS V14.01,2013-01-31 13:40:00,
2013-01-31 08:50:00,32.2,19.2,29.26,WSW,255,17.4,30.2,58,0.00,,,0.00,VWS V14.01,2013-01-31 13:50:00,
2013-01-31 09:05:00,31.6,18.3,29.29,SW,230,32.4,34.2,57,0.00,,,0.00,VWS V14.01,2013-01-31 14:05:00,
2013-01-31 09:10:00,31.6,18.7,29.29,West,270,16.8,34.2,58,0.00,,,0.00,VWS V14.01,2013-01-31 14:10:00,
2013-01-31 09:15:00,31.5,18.1,29.29,WSW,237,32.4,34.9,57,0.00,,,0.00,VWS V14.01,2013-01-31 14:15:00,
2013-01-31 09:25:00,31.3,18.0,29.29,WSW,245,17.4,34.9,57,0.00,,,0.00,VWS V14.01,2013-01-31 14:25:00,
2013-01-31 09:30:00,31.3,18.0,29.29,WSW,255,27.5,30.2,57,0.00,,,0.00,VWS V14.01,2013-01-31 14:30:00,
2013-01-31 09:36:00,31.1,17.8,29.29,SSW,206,14.5,30.2,57,0.00,,,0.00,VWS V14.01,2013-01-31 14:36:00,
2013-01-31 09:45:00,30.9,18.8,29.32,SW,214,11.0,20.1,60,0.00,,,0.00,VWS V14.01,2013-01-31 14:45:00,
2013-01-31 09:50:00,30.6,19.2,29.32,WSW,248,15.0,20.6,62,0.00,,,0.00,VWS V14.01,2013-01-31 14:50:00,
2013-01-31 09:55:00,30.2,19.6,29.32,West,261,20.6,25.1,64,0.00,,,0.00,VWS V14.01,2013-01-31 14:55:00,
2013-01-31 10:05:00,30.4,18.3,29.32,SSW,209,25.7,30.6,60,0.00,,,0.00,VWS V14.01,2013-01-31 15:05:00,
2013-01-31 10:15:00,30.7,17.4,29.32,WSW,241,12.8,33.3,57,0.00,,,0.00,VWS V14.01,2013-01-31 15:15:00,
2013-01-31 10:25:00,30.6,17.7,29.32,WSW,237,21.9,29.8,58,0.00,,,0.00,VWS V14.01,2013-01-31 15:25:00,
2013-01-31 10:35:00,31.1,17.8,29.32,West,280,23.3,29.8,57,0.00,,,0.00,VWS V14.01,2013-01-31 15:35:00,
2013-01-31 10:40:00,31.1,17.4,29.32,SW,233,24.2,27.1,56,0.00,,,0.00,VWS V14.01,2013-01-31 15:40:00,
2013-01-31 10:45:00,31.1,17.4,29.32,NW,309,13.2,25.5,56,0.00,,,0.00,VWS V14.01,2013-01-31 15:45:00,
2013-01-31 10:50:00,30.7,17.4,29.32,WNW,289,13.2,25.5,57,0.00,,,0.00,VWS V14.01,2013-01-31 15:50:00,
2013-01-31 11:00:00,30.2,18.5,29.35,SW,234,15.4,31.1,61,0.00,,,0.00,VWS V14.01,2013-01-31 16:00:00,
2013-01-31 11:10:00,30.2,18.5,29.35,SW,225,17.9,31.1,61,0.00,,,0.00,VWS V14.01,2013-01-31 16:10:00,
2013-01-31 11:20:00,30.2,18.5,29.35,SW,233,9.6,25.5,61,0.00,,,0.00,VWS V14.01,2013-01-31 16:20:00,
2013-01-31 11:30:00,29.3,17.6,29.35,WSW,252,11.0,27.1,61,0.00,,,0.00,VWS V14.01,2013-01-31 16:30:00,
2013-01-31 11:35:00,29.3,17.6,29.35,WSW,249,12.3,27.1,61,0.00,,,0.00,VWS V14.01,2013-01-31 16:35:00,
2013-01-31 11:45:00,30.2,17.3,29.35,WSW,250,14.5,24.2,58,0.00,,,0.00,VWS V14.01,2013-01-31 16:45:00,
2013-01-31 11:55:00,30.2,17.3,29.35,WNW,286,9.6,24.2,58,0.00,,,0.00,VWS V14.01,2013-01-31 16:55:00,
2013-01-31 12:05:00,30.2,17.3,29.35,WSW,254,15.4,28.9,58,0.00,,,0.00,VWS V14.01,2013-01-31 17:05:00,
2013-01-31 12:10:00,30.0,16.8,29.35,WSW,257,27.5,28.9,57,0.00,,,0.00,VWS V14.01,2013-01-31 17:10:00,
2013-01-31 12:15:00,29.8,17.0,29.35,SW,235,14.5,28.9,58,0.00,,,0.00,VWS V14.01,2013-01-31 17:15:00,
2013-01-31 12:20:00,30.0,17.2,29.35,SW,234,17.4,29.8,58,0.00,,,0.00,VWS V14.01,2013-01-31 17:20:00,
2013-01-31 12:30:00,29.8,17.0,29.35,WSW,253,15.4,25.7,58,0.00,,,0.00,VWS V14.01,2013-01-31 17:30:00,
2013-01-31 12:40:00,29.7,16.8,29.38,SW,227,15.0,26.2,58,0.00,,,0.00,VWS V14.01,2013-01-31 17:40:00,
2013-01-31 12:45:00,30.0,17.6,29.38,WSW,239,11.0,26.2,59,0.00,,,0.00,VWS V14.01,2013-01-31 17:45:00,
2013-01-31 12:55:00,30.2,16.9,29.38,West,267,20.1,23.7,57,0.00,,,0.00,VWS V14.01,2013-01-31 17:55:00,
2013-01-31 13:05:00,30.7,16.6,29.38,SW,227,17.9,27.1,55,0.00,,,0.00,VWS V14.01,2013-01-31 18:05:00,
2013-01-31 13:15:00,30.9,16.4,29.38,SW,231,19.7,26.6,54,0.00,,,0.00,VWS V14.01,2013-01-31 18:15:00,
2013-01-31 13:20:00,30.7,16.2,29.38,West,267,16.3,25.5,54,0.00,,,0.00,VWS V14.01,2013-01-31 18:20:00,
2013-01-31 13:30:00,29.7,16.0,29.38,SW,225,25.1,26.6,56,0.00,,,0.00,VWS V14.01,2013-01-31 18:30:00,
2013-01-31 13:40:00,29.8,15.8,29.41,WSW,241,16.8,28.9,55,0.00,,,0.00,VWS V14.01,2013-01-31 18:40:00,
2013-01-31 13:50:00,30.0,14.7,29.41,SSW,199,18.3,37.6,52,0.00,,,0.00,VWS V14.01,2013-01-31 18:50:00,
2013-01-31 13:55:00,30.0,15.1,29.41,WSW,243,24.6,37.6,53,0.00,,,0.00,VWS V14.01,2013-01-31 18:55:00,
2013-01-31 14:00:00,29.8,14.5,29.41,West,269,22.4,28.4,52,0.00,,,0.00,VWS V14.01,2013-01-31 19:00:00,
2013-01-31 14:05:00,29.8,14.9,29.41,WSW,239,15.4,28.4,53,0.00,,,0.00,VWS V14.01,2013-01-31 19:05:00,
2013-01-31 14:15:00,30.0,15.9,29.41,WNW,294,15.9,25.1,55,0.00,,,0.00,VWS V14.01,2013-01-31 19:15:00,
2013-01-31 14:25:00,29.5,15.9,29.41,West,278,23.7,23.7,56,0.00,,,0.00,VWS V14.01,2013-01-31 19:25:00,
2013-01-31 14:30:00,28.9,15.4,29.41,WSW,256,18.3,23.7,56,0.00,,,0.00,VWS V14.01,2013-01-31 19:30:00,
2013-01-31 14:40:00,28.8,15.2,29.41,WSW,252,22.4,25.5,56,0.00,,,0.00,VWS V14.01,2013-01-31 19:40:00,
2013-01-31 14:50:00,29.1,14.7,29.41,SSW,209,24.6,28.4,54,0.00,,,0.00,VWS V14.01,2013-01-31 19:50:00,
2013-01-31 14:55:00,28.9,15.4,29.44,SW,228,12.3,28.4,56,0.00,,,0.00,VWS V14.01,2013-01-31 19:55:00,
2013-01-31 15:05:00,28.6,13.8,29.44,WSW,245,15.0,32.4,53,0.00,,,0.00,VWS V14.01,2013-01-31 20:05:00,
2013-01-31 15:15:00,28.8,14.4,29.44,SW,233,22.8,25.1,54,0.00,,,0.00,VWS V14.01,2013-01-31 20:15:00,
2013-01-31 15:25:00,28.4,14.0,29.44,SW,222,15.4,26.2,54,0.00,,,0.00,VWS V14.01,2013-01-31 20:25:00,
2013-01-31 15:30:00,28.2,13.9,29.44,SW,227,12.8,26.2,54,0.00,,,0.00,VWS V14.01,2013-01-31 20:30:00,
2013-01-31 15:40:00,27.1,16.0,29.47,WSW,258,15.4,26.2,62,0.00,,,0.00,VWS V14.01,2013-01-31 20:40:00,
2013-01-31 15:50:00,26.1,17.1,29.47,West,278,15.0,25.1,68,0.00,,,0.00,VWS V14.01,2013-01-31 20:50:00,
2013-01-31 16:01:00,26.1,16.7,29.47,WSW,249,17.4,17.9,67,0.00,,,0.00,VWS V14.01,2013-01-31 21:01:00,
2013-01-31 16:10:00,26.4,14.5,29.47,SW,229,8.3,25.7,60,0.00,,,0.00,VWS V14.01,2013-01-31 21:10:00,
2013-01-31 16:15:00,26.8,14.5,29.47,WSW,247,13.2,25.7,59,0.00,,,0.00,VWS V14.01,2013-01-31 21:15:00,
2013-01-31 16:25:00,25.9,15.9,29.47,West,277,22.4,25.5,65,0.00,,,0.00,VWS V14.01,2013-01-31 21:25:00,
2013-01-31 16:35:00,24.1,17.1,29.47,WSW,247,16.8,25.5,74,0.00,,,0.00,VWS V14.01,2013-01-31 21:35:00,
2013-01-31 16:45:00,23.5,18.7,29.50,WSW,243,5.8,19.7,81,0.00,,,0.00,VWS V14.01,2013-01-31 21:45:00,
2013-01-31 16:50:00,23.5,19.0,29.50,WSW,258,12.8,19.7,82,0.00,,,0.00,VWS V14.01,2013-01-31 21:50:00,
2013-01-31 17:00:00,23.7,19.7,29.50,SW,235,10.5,16.8,84,0.00,,,0.00,VWS V14.01,2013-01-31 22:00:00,
2013-01-31 17:10:00,23.7,20.2,29.50,WSW,244,7.6,17.9,86,0.00,,,0.00,VWS V14.01,2013-01-31 22:10:00,
2013-01-31 17:20:00,23.9,19.9,29.50,West,270,13.6,22.4,84,0.00,,,0.00,VWS V14.01,2013-01-31 22:20:00,
2013-01-31 17:25:00,23.5,18.1,29.53,West,260,18.3,25.7,79,0.00,,,0.00,VWS V14.01,2013-01-31 22:25:00,
2013-01-31 17:35:00,23.4,17.6,29.53,WSW,237,18.8,24.6,78,0.00,,,0.00,VWS V14.01,2013-01-31 22:35:00,
2013-01-31 17:45:00,23.5,16.9,29.53,SSW,208,12.8,24.6,75,0.00,,,0.00,VWS V14.01,2013-01-31 22:45:00,
2013-01-31 17:50:00,23.7,15.5,29.53,WSW,240,13.2,29.3,70,0.00,,,0.00,VWS V14.01,2013-01-31 22:50:00,
2013-01-31 18:00:00,24.3,15.0,29.53,WSW,251,12.8,24.2,67,0.00,,,0.00,VWS V14.01,2013-01-31 23:00:00,
2013-01-31 18:10:00,24.4,15.5,29.53,SW,222,13.2,25.5,68,0.00,,,0.00,VWS V14.01,2013-01-31 23:10:00,
2013-01-31 18:20:00,24.3,16.0,29.53,West,271,5.8,19.2,70,0.00,,,0.00,VWS V14.01,2013-01-31 23:20:00,
2013-01-31 18:30:00,23.9,16.6,29.53,SW,231,10.5,25.5,73,0.00,,,0.00,VWS V14.01,2013-01-31 23:30:00,
2013-01-31 18:35:00,23.7,17.1,29.56,SSW,209,12.8,25.5,75,0.00,,,0.00,VWS V14.01,2013-01-31 23:35:00,
2013-01-31 18:45:00,23.7,17.4,29.56,SW,232,15.4,21.0,76,0.00,,,0.00,VWS V14.01,2013-01-31 23:45:00,
2013-01-31 18:55:00,23.5,16.3,29.56,SW,219,15.4,30.6,73,0.00,,,0.00,VWS V14.01,2013-01-31 23:55:00,
2013-01-31 19:05:00,23.7,15.8,29.56,WSW,238,13.2,23.3,71,0.00,,,0.00,VWS V14.01,2013-02-01 00:05:00,
2013-01-31 19:10:00,23.7,15.8,29.56,SW,218,6.3,16.8,71,0.00,,,0.00,VWS V14.01,2013-02-01 00:10:00,
2013-01-31 19:20:00,23.7,15.8,29.56,SSW,209,13.2,15.4,71,0.00,,,0.00,VWS V14.01,2013-02-01 00:20:00,
2013-01-31 19:25:00,23.5,16.3,29.56,SW,223,10.5,20.1,73,0.00,,,0.00,VWS V14.01,2013-02-01 00:25:00,
2013-01-31 19:35:00,22.5,16.4,29.56,SSW,201,8.3,26.2,77,0.00,,,0.00,VWS V14.01,2013-02-01 00:35:00,
2013-01-31 19:45:00,22.1,16.7,29.59,WSW,254,17.0,19.7,79,0.00,,,0.00,VWS V14.01,2013-02-01 00:45:00,
2013-01-31 19:55:00,21.9,17.1,29.59,WSW,247,8.3,20.6,81,0.00,,,0.00,VWS V14.01,2013-02-01 00:55:00,
2013-01-31 20:05:00,22.1,17.3,29.59,WSW,238,10.5,17.0,81,0.00,,,0.00,VWS V14.01,2013-02-01 01:05:00,
2013-01-31 20:10:00,22.1,17.3,29.59,WSW,241,8.7,17.0,81,0.00,,,0.00,VWS V14.01,2013-02-01 01:10:00,
2013-01-31 20:20:00,21.9,17.4,29.59,WSW,238,8.7,13.2,82,0.00,,,0.00,VWS V14.01,2013-02-01 01:20:00,
2013-01-31 20:30:00,21.7,18.0,29.59,SW,224,8.7,17.0,85,0.00,,,0.00,VWS V14.01,2013-02-01 01:30:00,
2013-01-31 20:40:00,21.6,18.1,29.59,WSW,238,14.1,18.8,86,0.00,,,0.00,VWS V14.01,2013-02-01 01:40:00,
2013-01-31 20:50:00,21.4,18.2,29.59,West,263,11.0,24.6,87,0.00,,,0.00,VWS V14.01,2013-02-01 01:50:00,
2013-01-31 20:55:00,21.4,18.2,29.59,SW,227,7.6,24.6,87,0.00,,,0.00,VWS V14.01,2013-02-01 01:55:00,
2013-01-31 21:00:00,21.4,17.9,29.59,WSW,241,10.5,24.6,86,0.00,,,0.00,VWS V14.01,2013-02-01 02:00:00,
2013-01-31 21:05:00,21.4,17.9,29.59,SW,236,12.8,19.7,86,0.00,,,0.00,VWS V14.01,2013-02-01 02:05:00,
2013-01-31 21:15:00,21.4,17.7,29.59,SW,234,8.3,19.7,85,0.00,,,0.00,VWS V14.01,2013-02-01 02:15:00,
2013-01-31 21:25:00,21.2,17.8,29.59,SW,214,12.8,19.2,86,0.00,,,0.00,VWS V14.01,2013-02-01 02:25:00,
2013-01-31 21:30:00,21.2,17.2,29.59,WSW,237,11.0,19.2,84,0.00,,,0.00,VWS V14.01,2013-02-01 02:30:00,
2013-01-31 21:40:00,21.2,16.4,29.59,WSW,241,8.7,15.4,81,0.00,,,0.00,VWS V14.01,2013-02-01 02:40:00,
2013-01-31 21:45:00,21.2,16.1,29.59,West,271,8.7,15.4,80,0.00,,,0.00,VWS V14.01,2013-02-01 02:45:00,
2013-01-31 21:50:00,21.2,16.4,29.62,WNW,282,9.6,16.8,81,0.00,,,0.00,VWS V14.01,2013-02-01 02:50:00,
2013-01-31 21:55:00,20.8,16.6,29.62,WSW,237,23.3,28.4,83,0.00,,,0.00,VWS V14.01,2013-02-01 02:55:00,
2013-01-31 22:06:00,19.9,16.5,29.62,SW,232,15.0,28.4,86,0.00,,,0.00,VWS V14.01,2013-02-01 03:06:00,
2013-01-31 22:11:00,19.9,16.5,29.62,SW,232,15.0,28.4,86,0.00,,,0.00,VWS V14.01,2013-02-01 03:11:00,
2013-01-31 22:16:00,19.9,16.5,29.62,SW,232,15.0,27.5,86,0.00,,,0.00,VWS V14.01,2013-02-01 03:16:00,
2013-01-31 22:21:00,19.9,16.5,29.62,SW,232,15.0,27.5,86,0.00,,,0.00,VWS V14.01,2013-02-01 03:21:00,
2013-01-31 22:26:00,19.9,16.5,29.62,SW,232,15.0,27.5,86,0.00,,,0.00,VWS V14.01,2013-02-01 03:26:00,
2013-01-31 22:35:00,19.9,16.5,29.62,WSW,238,8.7,27.5,86,0.00,,,0.00,VWS V14.01,2013-02-01 03:35:00,
2013-01-31 22:40:00,19.9,16.5,29.62,WSW,238,8.7,19.7,86,0.00,,,0.00,VWS V14.01,2013-02-01 03:40:00,
2013-01-31 22:46:00,19.9,16.5,29.62,WSW,238,8.7,15.0,86,0.00,,,0.00,VWS V14.01,2013-02-01 03:46:00,
2013-01-31 22:51:00,19.9,16.5,29.62,WSW,238,8.7,15.0,86,0.00,,,0.00,VWS V14.01,2013-02-01 03:51:00,
2013-01-31 23:06:00,19.9,16.5,29.62,WSW,238,12.8,21.0,86,0.00,,,0.00,VWS V14.01,2013-02-01 04:06:00,
2013-01-31 23:15:00,19.9,16.5,29.62,SSW,213,12.8,24.2,86,0.00,,,0.00,VWS V14.01,2013-02-01 04:15:00,
2013-01-31 23:20:00,19.9,16.5,29.62,WSW,258,13.6,24.2,86,0.00,,,0.00,VWS V14.01,2013-02-01 04:20:00,
2013-01-31 23:25:00,19.9,16.5,29.62,SW,234,6.3,24.2,86,0.00,,,0.00,VWS V14.01,2013-02-01 04:25:00,
2013-01-31 23:35:00,18.9,16.8,29.62,SW,219,11.4,23.3,91,0.00,,,0.00,VWS V14.01,2013-02-01 04:35:00,
2013-01-31 23:40:00,18.9,16.8,29.62,SW,233,8.1,19.2,91,0.00,,,0.00,VWS V14.01,2013-02-01 04:40:00,
2013-01-31 23:50:00,18.9,16.8,29.62,West,281,8.3,17.4,91,0.00,,,0.00,VWS V14.01,2013-02-01 04:50:00,